Time;durP1;ratioP1;P1;durP2;ratioP2;P2;SDS_P1;SDS_P2;PMS_P1;PMS_P2;Temp;Humidity;BMP_temperature;BMP_pressure;BME280_temperature;BME280_humidity;BME280_pressure;Samples;Min_cycle;Max_cycle;Signal;HPM_P1;HPM_P2
2021/12/27 00:00:10;;;;;;;45.50;24.87;;;;;;;2.72;95.27;100181.47;5057129;28;20534;-62
2021/12/27 00:02:37;;;;;;;46.65;25.30;;;;;;;2.74;95.33;100179.53;5060137;28;20047;-62
2021/12/27 00:05:03;;;;;;;42.47;25.13;;;;;;;2.73;95.25;100178.72;5059671;28;20050;-62
2021/12/27 00:07:28;;;;;;;46.10;25.20;;;;;;;2.73;95.35;100173.47;5059037;28;20032;-62
2021/12/27 00:09:54;;;;;;;43.07;24.90;;;;;;;2.73;95.31;100173.47;5055403;28;20530;-62
2021/12/27 00:12:20;;;;;;;46.17;25.97;;;;;;;2.74;95.49;100171.69;5062169;28;20415;-62
2021/12/27 00:14:45;;;;;;;45.13;26.23;;;;;;;2.74;95.77;100169.06;5050633;28;20036;-62
2021/12/27 00:17:10;;;;;;;48.17;25.77;;;;;;;2.74;95.80;100167.25;5050542;28;20412;-62
2021/12/27 00:19:35;;;;;;;43.93;25.33;;;;;;;2.75;95.84;100174.16;5051286;28;20104;-62
2021/12/27 00:22:01;;;;;;;45.23;25.77;;;;;;;2.76;95.64;100170.56;5058645;28;20662;-62
2021/12/27 00:24:26;;;;;;;45.27;26.90;;;;;;;2.76;95.72;100177.59;5057202;28;20036;-62
2021/12/27 00:26:52;;;;;;;47.50;26.13;;;;;;;2.75;95.79;100171.53;5035280;28;20016;-62
2021/12/27 00:29:18;;;;;;;47.57;26.60;;;;;;;2.74;95.72;100162.00;5055701;28;20141;-62
2021/12/27 00:31:43;;;;;;;42.97;25.87;;;;;;;2.77;95.94;100166.97;5056382;28;20639;-62
2021/12/27 00:34:08;;;;;;;47.20;25.80;;;;;;;2.78;95.90;100159.94;5054525;28;20495;-61
2021/12/27 00:36:33;;;;;;;46.27;26.13;;;;;;;2.79;95.87;100161.59;5062656;28;20040;-61
2021/12/27 00:38:59;;;;;;;45.80;25.97;;;;;;;2.80;96.14;100161.47;5052622;28;20028;-61
2021/12/27 00:41:24;;;;;;;44.33;24.87;;;;;;;2.82;95.98;100157.88;5060585;28;20405;-61
2021/12/27 00:43:49;;;;;;;45.13;25.90;;;;;;;2.83;96.08;100151.66;5064182;28;20085;-61
2021/12/27 00:46:15;;;;;;;44.23;25.17;;;;;;;2.84;96.07;100141.03;5065144;28;20025;-62
2021/12/27 00:48:40;;;;;;;45.33;25.67;;;;;;;2.84;96.00;100145.44;5059544;28;20033;-61
2021/12/27 00:51:05;;;;;;;46.67;25.03;;;;;;;2.85;96.30;100140.06;5054703;28;20033;-61
2021/12/27 00:53:30;;;;;;;42.17;24.37;;;;;;;2.88;96.09;100144.19;5055955;28;20106;-61
2021/12/27 00:55:56;;;;;;;41.77;24.73;;;;;;;2.87;96.26;100137.31;5055369;28;20024;-61
2021/12/27 00:58:21;;;;;;;44.13;25.00;;;;;;;2.89;96.31;100130.97;5054472;28;20484;-62
2021/12/27 01:00:47;;;;;;;44.50;25.73;;;;;;;2.90;96.25;100130.00;5055158;28;20047;-61
2021/12/27 01:03:13;;;;;;;43.43;25.23;;;;;;;2.92;96.71;100127.25;5059320;28;20035;-61
2021/12/27 01:05:38;;;;;;;40.57;25.17;;;;;;;2.90;96.38;100116.06;5056466;28;20029;-61
2021/12/27 01:08:05;;;;;;;43.83;24.93;;;;;;;2.93;96.35;100126.28;5052133;28;20037;-61
2021/12/27 01:13:39;;;;;;;44.60;25.80;;;;;;;2.94;96.62;100120.06;5054451;28;20434;-62
2021/12/27 01:16:12;;;;;;;44.23;24.97;;;;;;;2.95;96.48;100130.44;5061528;28;20052;-61
2021/12/27 01:18:47;;;;;;;45.67;26.07;;;;;;;2.96;96.87;100124.22;5054568;28;20045;-61
2021/12/27 01:21:15;;;;;;;49.07;25.37;;;;;;;2.96;96.55;100132.06;5054850;28;20115;-61
2021/12/27 01:23:41;;;;;;;39.63;24.50;;;;;;;2.97;96.72;100132.91;5055638;28;20035;-61
2021/12/27 01:26:06;;;;;;;43.90;25.50;;;;;;;2.98;96.68;100124.06;5062234;28;20013;-61
2021/12/27 01:28:32;;;;;;;43.40;25.33;;;;;;;2.99;96.97;100123.09;5055050;28;20061;-61
2021/12/27 01:30:58;;;;;;;43.60;24.50;;;;;;;3.01;96.90;100127.25;5059301;28;20078;-61
2021/12/27 01:33:25;;;;;;;44.03;25.40;;;;;;;3.04;96.89;100118.25;5062178;28;20035;-61
2021/12/27 01:35:52;;;;;;;42.70;25.27;;;;;;;3.04;96.99;100119.09;5067520;28;20116;-61
2021/12/27 01:38:17;;;;;;;42.27;25.17;;;;;;;3.04;97.02;100105.97;5052552;28;20104;-62
2021/12/27 01:40:46;;;;;;;43.00;24.87;;;;;;;3.08;96.84;100114.38;5063373;28;20112;-61
2021/12/27 01:43:15;;;;;;;46.50;25.83;;;;;;;3.08;96.90;100117.84;5059968;28;20028;-61
2021/12/27 01:45:50;;;;;;;45.05;25.77;;;;;;;3.10;97.17;100113.28;5065497;28;20488;-61
2021/12/27 01:48:20;;;;;;;41.73;23.67;;;;;;;3.11;96.95;100114.94;5054870;28;20033;-62
2021/12/27 01:50:46;;;;;;;41.90;24.42;;;;;;;3.13;97.03;100106.91;5063191;28;20028;-62
2021/12/27 01:53:14;;;;;;;43.07;24.53;;;;;;;3.14;97.09;100103.31;5068330;28;20040;-62
2021/12/27 01:55:40;;;;;;;41.33;24.77;;;;;;;3.17;97.10;100107.47;5061904;28;20040;-62
2021/12/27 01:58:06;;;;;;;41.60;23.90;;;;;;;3.20;97.30;100107.19;5063206;28;20028;-61
2021/12/27 02:00:32;;;;;;;40.67;24.03;;;;;;;3.19;97.11;100111.63;5061605;28;20035;-62
2021/12/27 02:02:58;;;;;;;42.20;24.83;;;;;;;3.20;97.28;100109.81;5069658;28;20028;-61
2021/12/27 02:05:23;;;;;;;44.17;25.37;;;;;;;3.20;97.19;100107.19;5058956;28;20032;-62
2021/12/27 02:07:49;;;;;;;43.13;24.37;;;;;;;3.21;97.47;100104.44;5054324;28;20029;-62
2021/12/27 02:10:14;;;;;;;42.63;23.87;;;;;;;3.21;97.31;100107.06;5061763;28;20504;-62
2021/12/27 02:12:40;;;;;;;38.07;23.23;;;;;;;3.23;97.34;100102.50;5056552;28;20039;-61
2021/12/27 02:15:09;;;;;;;42.83;25.00;;;;;;;3.22;97.28;100103.47;5061804;28;20107;-62
2021/12/27 02:17:36;;;;;;;40.35;24.20;;;;;;;3.23;97.30;100099.88;5060345;28;20086;-62
2021/12/27 02:20:05;;;;;;;42.30;24.67;;;;;;;3.24;97.23;100096.28;5059466;28;20404;-62
2021/12/27 02:22:35;;;;;;;40.97;24.17;;;;;;;3.26;97.31;100096.13;5058278;28;20028;-62
2021/12/27 02:25:01;;;;;;;40.30;23.23;;;;;;;3.29;97.37;100096.69;5067433;28;20028;-62
2021/12/27 02:27:26;;;;;;;40.70;24.10;;;;;;;3.29;97.59;100096.69;5062286;28;20064;-62
2021/12/27 02:29:52;;;;;;;42.60;23.70;;;;;;;3.30;97.56;100093.09;5062666;28;20052;-62
2021/12/27 02:32:17;;;;;;;41.00;23.97;;;;;;;3.32;97.31;100092.94;5058705;28;20101;-62
2021/12/27 02:34:42;;;;;;;43.30;23.97;;;;;;;3.31;97.37;100086.03;5060341;28;20039;-62
2021/12/27 02:37:08;;;;;;;42.53;23.43;;;;;;;3.31;97.59;100084.25;5062084;28;20032;-62
2021/12/27 02:39:33;;;;;;;41.43;23.87;;;;;;;3.33;97.54;100084.09;5053906;28;20074;-62
2021/12/27 02:41:58;;;;;;;44.00;24.57;;;;;;;3.32;97.89;100085.91;5057358;28;20026;-62
2021/12/27 02:44:23;;;;;;;42.83;24.13;;;;;;;3.33;97.63;100086.72;5057606;28;20032;-62
2021/12/27 02:46:49;;;;;;;41.10;23.57;;;;;;;3.35;97.67;100097.91;5054109;28;20365;-62
2021/12/27 02:49:14;;;;;;;42.73;23.73;;;;;;;3.36;97.80;100095.13;5060293;28;20073;-62
2021/12/27 02:51:39;;;;;;;41.20;24.00;;;;;;;3.37;97.64;100088.09;5063184;28;20094;-62
2021/12/27 02:54:05;;;;;;;44.63;24.63;;;;;;;3.36;97.80;100083.81;5064612;28;20032;-62
2021/12/27 02:56:30;;;;;;;40.63;24.53;;;;;;;3.37;97.77;100083.66;5057626;28;20521;-62
2021/12/27 02:58:57;;;;;;;44.53;24.33;;;;;;;3.38;97.75;100072.19;5059640;28;20029;-62
2021/12/27 03:01:24;;;;;;;41.70;25.07;;;;;;;3.38;98.03;100072.19;5063594;28;20036;-62
2021/12/27 03:03:50;;;;;;;41.47;23.97;;;;;;;3.41;98.04;100073.69;5056317;28;20028;-62
2021/12/27 03:06:16;;;;;;;41.80;23.20;;;;;;;3.40;98.08;100078.13;5055601;28;20032;-62
2021/12/27 03:08:45;;;;;;;43.60;23.73;;;;;;;3.42;97.97;100068.31;5056096;28;20040;-61
2021/12/27 03:11:11;;;;;;;44.28;23.95;;;;;;;3.42;97.98;100070.94;5057124;28;20026;-62
2021/12/27 03:13:44;;;;;;;41.63;25.03;;;;;;;3.45;97.87;100074.25;5063992;28;20028;-62
2021/12/27 03:16:13;;;;;;;40.90;24.43;;;;;;;3.45;97.85;100074.25;5058321;28;20025;-62
2021/12/27 03:18:41;;;;;;;42.17;23.80;;;;;;;3.45;97.86;100066.38;5063158;28;20028;-62
2021/12/27 03:21:07;;;;;;;43.03;24.10;;;;;;;3.43;98.13;100056.84;5057871;28;20028;-62
2021/12/27 03:23:33;;;;;;;42.70;23.47;;;;;;;3.46;97.97;100058.34;5061890;28;20048;-62
2021/12/27 03:25:59;;;;;;;41.53;24.40;;;;;;;3.48;98.16;100059.06;5054974;28;20025;-62
2021/12/27 03:28:25;;;;;;;44.77;25.07;;;;;;;3.50;98.30;100056.28;5054558;28;20024;-61
2021/12/27 03:30:51;;;;;;;44.93;25.27;;;;;;;3.50;98.61;100062.38;5058189;28;20025;-62
2021/12/27 03:33:19;;;;;;;42.50;23.90;;;;;;;3.52;98.38;100060.41;5062108;28;20029;-62
2021/12/27 03:35:58;;;;;;;46.60;24.57;;;;;;;3.54;98.50;100065.53;5053672;28;20400;-62
2021/12/27 03:38:23;;;;;;;42.67;23.90;;;;;;;3.55;98.34;100054.06;5058613;28;20097;-62
2021/12/27 03:40:50;;;;;;;39.73;23.60;;;;;;;3.56;98.13;100059.16;5063764;28;20150;-62
2021/12/27 03:43:15;;;;;;;42.07;23.90;;;;;;;3.59;98.46;100058.03;5058573;28;20025;-62
2021/12/27 03:45:41;;;;;;;45.00;24.37;;;;;;;3.60;98.63;100049.19;5059499;28;20029;-62
2021/12/27 03:48:09;;;;;;;44.80;24.10;;;;;;;3.61;98.47;100049.03;5056385;28;20025;-62
2021/12/27 03:50:35;;;;;;;45.97;25.60;;;;;;;3.63;98.70;100048.91;5060511;28;20040;-62
2021/12/27 03:53:01;;;;;;;46.00;25.20;;;;;;;3.64;98.60;100056.63;5059505;28;20032;-62
2021/12/27 03:55:27;;;;;;;43.87;25.33;;;;;;;3.63;98.58;100052.34;5065271;28;20450;-62
2021/12/27 03:58:06;;;;;;;42.30;24.50;;;;;;;3.68;98.50;100038.78;5055688;28;20120;-62
2021/12/27 04:01:00;;;;;;;46.10;25.15;;;;;;;3.68;98.95;100036.97;5063359;28;20052;-62
2021/12/27 04:03:26;;;;;;;44.87;25.37;;;;;;;3.69;98.66;100041.25;5053179;28;20063;-62
2021/12/27 04:05:51;;;;;;;45.43;25.90;;;;;;;3.70;98.53;100036.84;5058339;28;20029;-62
2021/12/27 04:08:18;;;;;;;42.80;24.43;;;;;;;3.70;98.81;100026.31;5053148;28;20025;-62
2021/12/27 04:10:44;;;;;;;46.43;24.67;;;;;;;3.70;98.96;100026.31;5051766;28;20021;-62
2021/12/27 04:13:11;;;;;;;44.50;25.07;;;;;;;3.72;98.84;100029.63;5062639;28;20032;-62
2021/12/27 04:15:37;;;;;;;42.27;24.23;;;;;;;3.71;98.92;100030.59;5065132;28;20021;-62
2021/12/27 04:18:03;;;;;;;46.17;25.53;;;;;;;3.76;99.08;100023.13;5055705;28;20129;-62
2021/12/27 04:20:29;;;;;;;41.23;23.63;;;;;;;3.78;99.02;100013.31;5060175;28;20056;-62
2021/12/27 04:22:54;;;;;;;43.13;24.43;;;;;;;3.80;98.84;100005.28;5067603;28;20104;-62
2021/12/27 04:25:20;;;;;;;44.73;23.83;;;;;;;3.80;99.05;100002.66;5052999;28;20090;-62
2021/12/27 04:27:46;;;;;;;44.23;24.80;;;;;;;3.82;99.05;100006.78;5051688;28;20054;-62
2021/12/27 04:30:13;;;;;;;40.83;23.53;;;;;;;3.83;98.99;100000.56;5051817;28;20049;-62
2021/12/27 04:32:39;;;;;;;43.03;23.63;;;;;;;3.85;98.68;100003.88;5054353;28;20409;-62
2021/12/27 04:35:05;;;;;;;40.07;23.70;;;;;;;3.85;99.05;100003.88;5054046;28;20056;-62
2021/12/27 04:37:31;;;;;;;39.13;22.73;;;;;;;3.88;98.82;99998.31;5060227;28;20025;-62
2021/12/27 04:39:58;;;;;;;40.70;24.43;;;;;;;3.89;98.78;99999.13;5051876;28;20033;-62
2021/12/27 04:42:23;;;;;;;41.47;23.13;;;;;;;3.91;98.83;99990.13;5056724;28;20052;-62
2021/12/27 04:44:49;;;;;;;41.47;23.50;;;;;;;3.93;99.02;99998.69;5055913;28;20067;-62
2021/12/27 04:47:16;;;;;;;40.13;23.27;;;;;;;3.94;98.91;99986.38;5058892;28;20033;-62
2021/12/27 04:49:45;;;;;;;38.83;22.13;;;;;;;3.94;98.71;99989.00;5052598;28;20216;-62
2021/12/27 04:52:10;;;;;;;41.30;23.85;;;;;;;3.96;98.91;99985.25;5061785;28;20059;-62
2021/12/27 04:54:37;;;;;;;38.23;23.33;;;;;;;3.96;98.90;99985.25;5056124;28;20392;-62
2021/12/27 04:57:03;;;;;;;41.77;22.93;;;;;;;3.97;98.74;99991.34;5057227;28;20025;-62
2021/12/27 04:59:28;;;;;;;40.10;22.97;;;;;;;3.98;98.83;99988.56;5058652;28;20035;-62
2021/12/27 05:01:54;;;;;;;39.37;23.40;;;;;;;3.96;98.91;99982.63;5058465;28;20028;-62
2021/12/27 05:04:19;;;;;;;45.23;23.33;;;;;;;3.98;99.07;99992.97;5056126;28;20502;-62
2021/12/27 05:06:44;;;;;;;39.23;23.43;;;;;;;3.97;98.72;99986.91;5056182;28;20021;-62
2021/12/27 05:09:11;;;;;;;43.90;24.67;;;;;;;3.99;99.06;99984.13;5058241;28;20028;-62
2021/12/27 05:11:36;;;;;;;40.77;24.13;;;;;;;4.00;98.90;99985.78;5056890;28;20071;-61
2021/12/27 05:14:01;;;;;;;43.60;24.30;;;;;;;4.01;98.98;99990.88;5056899;28;20037;-62
2021/12/27 05:16:27;;;;;;;42.93;24.63;;;;;;;4.02;99.15;99983.81;5055492;28;20024;-61
2021/12/27 05:18:52;;;;;;;45.17;23.73;;;;;;;4.02;99.16;99979.41;5055365;28;20021;-62
2021/12/27 05:21:17;;;;;;;44.03;23.80;;;;;;;4.04;99.16;99976.63;5056692;28;20507;-61
2021/12/27 05:23:42;;;;;;;38.27;23.33;;;;;;;4.06;99.19;99977.31;5064055;28;20048;-62
2021/12/27 05:26:08;;;;;;;39.83;23.90;;;;;;;4.07;99.11;99965.00;5056166;28;20488;-62
2021/12/27 05:28:33;;;;;;;39.97;23.57;;;;;;;4.07;99.13;99959.75;5053798;28;20024;-62
2021/12/27 05:30:58;;;;;;;44.57;23.77;;;;;;;4.09;99.15;99961.25;5056848;28;20025;-62
2021/12/27 05:33:24;;;;;;;41.23;22.80;;;;;;;4.12;98.96;99962.75;5053868;28;20021;-62
2021/12/27 05:35:49;;;;;;;41.13;23.13;;;;;;;4.12;99.01;99963.59;5054795;28;20434;-62
2021/12/27 05:38:14;;;;;;;39.73;23.23;;;;;;;4.13;99.22;99961.78;5061473;28;20047;-62
2021/12/27 05:40:40;;;;;;;40.93;24.43;;;;;;;4.14;98.99;99966.06;5059420;28;20499;-62
2021/12/27 05:43:06;;;;;;;39.07;23.03;;;;;;;4.13;99.07;99959.97;5058822;28;20492;-62
2021/12/27 05:45:33;;;;;;;40.60;23.50;;;;;;;4.14;99.07;99960.81;5040508;28;20039;-62
2021/12/27 05:47:59;;;;;;;42.63;24.17;;;;;;;4.14;99.05;99968.69;5055277;28;20055;-62
2021/12/27 05:50:24;;;;;;;40.03;22.97;;;;;;;4.14;99.01;99964.25;5059039;28;20635;-62
2021/12/27 05:52:50;;;;;;;39.37;23.67;;;;;;;4.17;99.30;99965.75;5060631;28;20033;-62
2021/12/27 05:55:15;;;;;;;39.33;22.73;;;;;;;4.17;99.28;99961.31;5056232;28;20448;-62
2021/12/27 05:57:41;;;;;;;38.20;23.30;;;;;;;4.19;99.21;99964.63;5049786;28;20519;-62
2021/12/27 06:00:10;;;;;;;40.50;23.70;;;;;;;4.20;99.32;99952.31;5052156;28;20025;-62
2021/12/27 06:02:36;;;;;;;40.67;23.27;;;;;;;4.23;99.63;99965.16;5055433;28;20036;-62
2021/12/27 06:05:01;;;;;;;39.37;22.70;;;;;;;4.25;99.51;99969.25;5053514;28;20158;-62
2021/12/27 06:07:26;;;;;;;43.57;23.80;;;;;;;4.27;99.64;99974.38;5055164;28;20024;-61
2021/12/27 06:09:52;;;;;;;41.27;24.17;;;;;;;4.26;99.71;99964.84;5056824;28;20554;-62
2021/12/27 06:12:17;;;;;;;42.57;23.93;;;;;;;4.29;99.52;99977.66;5051400;28;20032;-62
2021/12/27 06:14:42;;;;;;;40.70;23.33;;;;;;;4.30;99.73;99974.06;5061281;28;20107;-62
2021/12/27 06:17:08;;;;;;;42.77;23.93;;;;;;;4.30;99.91;99976.69;5060777;28;20027;-62
2021/12/27 06:19:33;;;;;;;42.83;24.47;;;;;;;4.30;99.70;99966.19;5059180;28;20021;-62
2021/12/27 06:21:59;;;;;;;44.47;24.20;;;;;;;4.32;99.96;99972.09;5060850;28;20381;-62
2021/12/27 06:24:24;;;;;;;40.93;23.87;;;;;;;4.34;99.86;99972.81;5065895;28;20102;-62
2021/12/27 06:26:49;;;;;;;39.47;23.47;;;;;;;4.37;99.99;99966.44;5062001;28;20032;-62
2021/12/27 06:29:14;;;;;;;40.20;22.60;;;;;;;4.38;99.72;99968.91;5061568;28;20490;-62
2021/12/27 06:31:40;;;;;;;39.90;24.00;;;;;;;4.41;100.00;99965.13;5059650;28;20033;-62
2021/12/27 06:34:05;;;;;;;42.87;23.47;;;;;;;4.42;99.87;99966.78;5053673;28;20082;-62
2021/12/27 06:36:32;;;;;;;39.83;23.73;;;;;;;4.42;100.00;99956.28;5060650;28;20021;-62
2021/12/27 06:38:58;;;;;;;39.27;22.63;;;;;;;4.46;99.82;99957.63;5056192;28;20032;-62
2021/12/27 06:41:26;;;;;;;40.40;23.67;;;;;;;4.47;100.00;99954.81;5053705;28;20028;-62
2021/12/27 06:43:52;;;;;;;37.63;23.00;;;;;;;4.50;100.00;99951.88;5061004;28;20492;-62
2021/12/27 06:46:17;;;;;;;36.83;21.67;;;;;;;4.52;100.00;99949.94;5060077;28;20024;-62
2021/12/27 06:48:43;;;;;;;36.57;22.60;;;;;;;4.55;100.00;99952.25;5058706;28;20024;-62
2021/12/27 06:51:08;;;;;;;41.07;23.27;;;;;;;4.56;100.00;99958.34;5059009;28;20032;-62
2021/12/27 06:53:34;;;;;;;39.77;22.73;;;;;;;4.57;100.00;99949.47;5057951;28;20391;-62
2021/12/27 06:55:59;;;;;;;38.57;22.93;;;;;;;4.59;99.63;99939.63;5062753;28;20021;-62
2021/12/27 06:58:25;;;;;;;38.03;22.43;;;;;;;4.59;100.00;99940.44;5068632;28;20048;-62
2021/12/27 07:00:51;;;;;;;35.70;22.67;;;;;;;4.61;100.00;99943.75;5055978;28;20071;-62
2021/12/27 07:03:16;;;;;;;37.00;21.97;;;;;;;4.61;100.00;99942.91;5055322;28;20096;-62
2021/12/27 07:05:42;;;;;;;40.03;22.17;;;;;;;4.63;100.00;99949.69;5054092;28;20452;-62
2021/12/27 07:08:08;;;;;;;36.13;22.30;;;;;;;4.65;99.96;99942.47;5058199;28;20020;-62
2021/12/27 07:10:34;;;;;;;35.50;22.27;;;;;;;4.67;99.99;99942.31;5059273;28;20036;-62
2021/12/27 07:13:01;;;;;;;40.03;23.00;;;;;;;4.71;100.00;99932.31;5054458;28;20055;-62
2021/12/27 07:15:27;;;;;;;41.97;22.90;;;;;;;4.72;99.97;99940.06;5056064;28;20086;-62
2021/12/27 07:17:52;;;;;;;39.23;22.47;;;;;;;4.73;100.00;99933.00;5052084;28;20528;-62
2021/12/27 07:20:17;;;;;;;38.63;22.53;;;;;;;4.75;100.00;99933.66;5055526;28;20025;-62
2021/12/27 07:22:43;;;;;;;37.07;22.10;;;;;;;4.75;100.00;99931.84;5065074;28;20027;-62
2021/12/27 07:25:08;;;;;;;39.23;22.07;;;;;;;4.78;100.00;99922.81;5067506;28;20068;-62
2021/12/27 07:27:34;;;;;;;38.60;21.87;;;;;;;4.79;100.00;99925.28;5056402;28;20028;-62
2021/12/27 07:29:59;;;;;;;40.63;23.03;;;;;;;4.81;100.00;99919.88;5060554;28;20047;-62
2021/12/27 07:32:25;;;;;;;41.00;22.63;;;;;;;4.81;100.00;99919.88;5058848;28;20438;-62
2021/12/27 07:34:50;;;;;;;37.97;21.80;;;;;;;4.83;100.00;99915.28;5057258;28;20024;-62
2021/12/27 07:37:16;;;;;;;38.90;21.80;;;;;;;4.84;100.00;99917.75;5058992;28;20037;-62
2021/12/27 07:39:42;;;;;;;37.27;22.00;;;;;;;4.86;100.00;99910.53;5050635;28;20029;-62
2021/12/27 07:42:08;;;;;;;44.27;22.60;;;;;;;4.84;100.00;99914.28;5055425;28;20039;-62
2021/12/27 07:44:33;;;;;;;40.63;23.50;;;;;;;4.88;100.00;99918.25;5052376;28;20079;-62
2021/12/27 07:46:58;;;;;;;42.13;22.23;;;;;;;4.91;99.97;99925.84;5058098;28;20384;-62
2021/12/27 07:49:24;;;;;;;40.03;21.57;;;;;;;4.90;100.00;99921.56;5061762;28;20078;-62
2021/12/27 07:51:49;;;;;;;40.07;21.53;;;;;;;4.91;99.83;99924.03;5053382;28;20041;-62
2021/12/27 07:54:14;;;;;;;40.30;22.17;;;;;;;4.93;100.00;99921.28;5055640;28;20027;-62
2021/12/27 07:56:40;;;;;;;33.70;20.63;;;;;;;4.95;100.00;99919.31;5056802;28;20024;-62
2021/12/27 07:59:06;;;;;;;41.77;21.57;;;;;;;4.94;100.00;99933.44;5053442;28;20029;-62
2021/12/27 08:01:32;;;;;;;36.90;21.10;;;;;;;4.93;99.99;99922.09;5055433;28;20025;-62
2021/12/27 08:03:58;;;;;;;36.93;21.17;;;;;;;4.94;100.00;99926.38;5058785;28;20029;-62
2021/12/27 08:06:23;;;;;;;42.27;22.20;;;;;;;4.98;100.00;99932.16;5059289;28;20024;-62
2021/12/27 08:08:48;;;;;;;37.23;21.40;;;;;;;4.95;100.00;99925.41;5061011;28;20067;-62
2021/12/27 08:11:14;;;;;;;39.60;21.43;;;;;;;4.97;100.00;99938.38;5056348;28;20025;-62
2021/12/27 08:13:42;;;;;;;40.00;21.53;;;;;;;4.97;99.99;99927.88;5059014;28;20033;-62
2021/12/27 08:16:08;;;;;;;37.63;21.67;;;;;;;5.00;100.00;99929.34;5062936;28;20017;-62
2021/12/27 08:18:33;;;;;;;38.37;21.47;;;;;;;5.01;100.00;99939.72;5049862;28;20085;-62
2021/12/27 08:20:59;;;;;;;43.30;21.33;;;;;;;5.01;100.00;99939.72;5053429;28;20021;-62
2021/12/27 08:23:24;;;;;;;36.33;20.10;;;;;;;5.03;100.00;99939.56;5058368;28;20036;-62
2021/12/27 08:25:49;;;;;;;39.47;22.50;;;;;;;5.04;99.94;99939.41;5056032;28;20047;-62
2021/12/27 08:28:15;;;;;;;35.07;20.47;;;;;;;5.06;100.00;99944.50;5059223;28;20060;-62
2021/12/27 08:30:40;;;;;;;35.87;20.13;;;;;;;5.05;100.00;99941.06;5066693;28;20024;-62
2021/12/27 08:33:05;;;;;;;37.57;21.83;;;;;;;5.06;100.00;99939.25;5058734;28;20104;-62
2021/12/27 08:35:30;;;;;;;36.03;20.20;;;;;;;5.07;100.00;99938.25;5055675;28;20033;-62
2021/12/27 08:37:56;;;;;;;36.00;20.57;;;;;;;5.07;100.00;99939.09;5059328;28;20113;-62
2021/12/27 08:40:21;;;;;;;32.20;19.97;;;;;;;5.08;100.00;99935.47;5055476;28;20491;-62
2021/12/27 08:42:46;;;;;;;34.60;20.17;;;;;;;5.08;100.00;99934.66;5061674;28;20074;-62
2021/12/27 08:45:12;;;;;;;33.37;21.03;;;;;;;5.09;100.00;99931.84;5051435;28;20028;-63
2021/12/27 08:47:40;;;;;;;35.77;19.93;;;;;;;5.12;100.00;99922.81;5060913;28;20027;-63
2021/12/27 08:50:07;;;;;;;35.90;20.40;;;;;;;5.15;99.99;99930.41;5052170;28;20029;-62
2021/12/27 08:52:32;;;;;;;32.43;19.30;;;;;;;5.16;99.97;99916.25;5058507;28;20107;-62
2021/12/27 08:55:01;;;;;;;31.60;19.83;;;;;;;5.17;100.00;99924.00;5059960;28;20554;-62
2021/12/27 08:57:27;;;;;;;34.17;19.50;;;;;;;5.18;100.00;99915.09;5062982;28;20028;-62
2021/12/27 08:59:52;;;;;;;31.77;18.70;;;;;;;5.19;100.00;99906.22;5051873;28;20078;-62
2021/12/27 09:02:17;;;;;;;30.20;18.30;;;;;;;5.20;100.00;99892.13;5060089;28;20055;-62
2021/12/27 09:04:43;;;;;;;31.00;18.77;;;;;;;5.19;99.68;99895.69;5058198;28;20032;-62
2021/12/27 09:07:09;;;;;;;30.63;18.60;;;;;;;5.20;99.85;99886.00;5049541;28;20084;-63
2021/12/27 09:09:34;;;;;;;35.37;19.80;;;;;;;5.23;100.00;99886.53;5063647;28;20431;-62
2021/12/27 09:12:00;;;;;;;33.23;20.53;;;;;;;5.26;99.88;99882.75;5059126;28;20028;-62
2021/12/27 09:14:25;;;;;;;33.77;20.13;;;;;;;5.32;100.00;99887.38;5056215;28;20029;-62
2021/12/27 09:16:50;;;;;;;31.93;19.90;;;;;;;5.39;100.00;99880.47;5036301;28;20397;-62
2021/12/27 09:19:16;;;;;;;30.30;19.87;;;;;;;5.43;100.00;99878.34;5058310;28;20111;-62
2021/12/27 09:21:42;;;;;;;32.40;18.97;;;;;;;5.49;99.84;99882.97;5054185;28;20052;-62
2021/12/27 09:24:07;;;;;;;27.93;18.20;;;;;;;5.51;99.50;99888.91;5058328;28;20112;-62
2021/12/27 09:26:33;;;;;;;27.57;18.43;;;;;;;5.57;99.61;99894.34;5060098;28;20115;-62
2021/12/27 09:28:58;;;;;;;29.33;18.37;;;;;;;5.55;99.36;99906.03;5055425;28;20039;-62
2021/12/27 09:31:25;;;;;;;25.33;16.67;;;;;;;5.56;99.11;99905.88;5055771;28;20025;-62
2021/12/27 09:33:50;;;;;;;27.20;17.03;;;;;;;5.53;98.91;99914.09;5054707;28;20020;-62
2021/12/27 09:36:15;;;;;;;24.10;16.70;;;;;;;5.53;98.82;99913.28;5048917;28;20029;-62
2021/12/27 09:38:41;;;;;;;26.40;16.60;;;;;;;5.53;98.94;99913.28;5052571;28;20025;-62
2021/12/27 09:41:06;;;;;;;25.73;16.87;;;;;;;5.54;98.79;99917.56;5054115;28;20025;-62
2021/12/27 09:43:31;;;;;;;24.53;16.57;;;;;;;5.58;98.72;99910.97;5054925;28;20021;-62
2021/12/27 09:45:56;;;;;;;24.40;16.83;;;;;;;5.59;98.62;99910.00;5053026;28;20056;-62
2021/12/27 09:48:22;;;;;;;28.67;16.83;;;;;;;5.60;98.31;99899.28;5049811;28;20039;-62
2021/12/27 09:50:51;;;;;;;23.70;16.53;;;;;;;5.64;98.62;99899.78;5054770;28;20031;-62
2021/12/27 09:53:16;;;;;;;26.10;16.38;;;;;;;5.67;98.49;99896.00;5052163;28;20021;-62
2021/12/27 09:55:41;;;;;;;29.83;16.43;;;;;;;5.69;98.11;99880.88;5060506;28;20023;-62
2021/12/27 09:58:07;;;;;;;25.13;15.70;;;;;;;5.72;98.33;99886.63;5056985;28;20027;-62
2021/12/27 10:00:34;;;;;;;22.40;15.40;;;;;;;5.75;97.96;99885.47;5057372;28;20036;-62
2021/12/27 10:03:00;;;;;;;22.67;14.63;;;;;;;5.76;98.10;99882.69;5063924;28;20025;-62
2021/12/27 10:05:29;;;;;;;25.53;15.60;;;;;;;5.79;97.72;99882.38;5063610;28;20361;-62
2021/12/27 10:07:54;;;;;;;22.02;15.93;;;;;;;5.80;97.82;99876.13;5056017;28;20102;-62
2021/12/27 10:10:20;;;;;;;21.90;15.27;;;;;;;5.78;97.97;99875.47;5057795;28;20025;-62
2021/12/27 10:12:46;;;;;;;25.50;16.40;;;;;;;5.76;97.32;99866.03;5064004;28;20062;-62
2021/12/27 10:15:18;;;;;;;25.03;17.17;;;;;;;5.73;97.01;99858.47;5067906;28;20031;-62
2021/12/27 10:17:43;;;;;;;27.10;18.10;;;;;;;5.73;97.03;99855.84;5064162;28;20044;-62
2021/12/27 10:20:19;;;;;;;27.70;17.70;;;;;;;5.74;97.15;99842.50;5067574;28;20468;-62
2021/12/27 10:22:48;;;;;;;27.20;18.53;;;;;;;5.70;96.94;99830.66;5060425;28;20040;-62
2021/12/27 10:25:19;;;;;;;28.40;18.87;;;;;;;5.71;96.80;99827.03;5056917;28;20032;-62
2021/12/27 10:27:46;;;;;;;27.97;18.50;;;;;;;5.68;96.40;99823.91;5055564;28;20025;-62
2021/12/27 10:30:16;;;;;;;27.63;18.87;;;;;;;5.66;96.87;99831.97;5056941;28;20447;-62
2021/12/27 10:32:41;;;;;;;30.83;17.23;;;;;;;5.64;96.59;99841.84;5064975;28;20028;-62
2021/12/27 10:35:09;;;;;;;28.47;18.40;;;;;;;5.63;96.35;99847.28;5057654;28;20123;-63
2021/12/27 10:37:36;;;;;;;27.93;19.00;;;;;;;5.59;95.97;99844.16;5062026;28;20095;-63
2021/12/27 10:40:09;;;;;;;26.67;18.77;;;;;;;5.57;96.16;99844.31;5055176;28;20902;-62
2021/12/27 10:42:39;;;;;;;27.57;18.90;;;;;;;5.60;96.03;99846.63;5060944;28;20383;-62
2021/12/27 10:45:10;;;;;;;30.40;18.77;;;;;;;5.66;96.05;99847.78;5061315;28;20028;-62
2021/12/27 10:47:35;;;;;;;25.53;18.33;;;;;;;5.68;96.39;99842.34;5053696;28;20025;-63
2021/12/27 10:50:30;;;;;;;28.93;18.80;;;;;;;5.71;95.95;99844.66;5058310;28;20397;-63
2021/12/27 10:53:00;;;;;;;25.17;17.90;;;;;;;5.73;95.94;99847.94;5053800;28;20059;-62
2021/12/27 10:55:46;;;;;;;27.73;18.17;;;;;;;5.79;96.21;99849.94;5058661;28;20033;-62
2021/12/27 10:58:29;;;;;;;25.83;17.93;;;;;;;5.82;96.19;99837.25;5061242;28;20029;-62
2021/12/27 11:01:03;;;;;;;25.73;18.40;;;;;;;5.84;96.30;99843.19;5058249;28;20028;-63
2021/12/27 11:03:32;;;;;;;25.37;17.53;;;;;;;5.86;96.02;99841.22;5059433;28;20039;-62
2021/12/27 11:06:00;;;;;;;25.40;17.92;;;;;;;5.92;95.84;99834.47;5064093;28;20052;-62
2021/12/27 11:08:27;;;;;;;25.20;18.17;;;;;;;5.98;95.96;99833.00;5057987;28;20568;-62
2021/12/27 11:10:53;;;;;;;26.27;17.33;;;;;;;6.05;96.36;99829.53;5055513;28;20033;-62
2021/12/27 11:13:18;;;;;;;24.57;16.67;;;;;;;6.10;96.46;99819.31;5050972;28;20082;-62
2021/12/27 11:15:44;;;;;;;25.40;16.23;;;;;;;6.16;96.34;99810.75;5051748;28;20029;-62
2021/12/27 11:18:12;;;;;;;20.30;14.90;;;;;;;6.17;95.92;99824.75;5052350;28;20028;-62